createdAt,value
2023-12-30T00:00:18.634Z,7.53
2023-12-30T00:02:47.675Z,7.53
2023-12-30T00:05:15.422Z,6.72
2023-12-30T00:07:43.074Z,6.60
2023-12-30T00:10:12.346Z,5.93
2023-12-30T00:12:40.101Z,6.18
2023-12-30T00:15:09.336Z,7.35
2023-12-30T00:17:37.251Z,7.07
2023-12-30T00:20:05.812Z,7.57
2023-12-30T00:22:33.869Z,7.10
2023-12-30T00:25:01.705Z,6.32
2023-12-30T00:27:30.794Z,7.82
2023-12-30T00:29:58.374Z,7.57
2023-12-30T00:32:26.052Z,5.10
2023-12-30T00:34:54.070Z,6.32
2023-12-30T00:37:21.932Z,5.68
2023-12-30T00:39:52.184Z,6.78
2023-12-30T00:42:20.729Z,6.50
2023-12-30T00:44:49.694Z,8.03
2023-12-30T00:47:18.481Z,7.60
2023-12-30T00:49:46.454Z,5.25
2023-12-30T00:52:14.132Z,6.25
2023-12-30T00:54:48.205Z,10.80
2023-12-30T00:57:18.843Z,7.20
2023-12-30T00:59:46.672Z,6.90
2023-12-30T01:02:15.664Z,6.47
2023-12-30T01:04:43.349Z,10.05
2023-12-30T01:07:11.007Z,8.85
2023-12-30T01:09:38.882Z,6.83
2023-12-30T01:12:07.628Z,7.38
2023-12-30T01:14:35.563Z,6.75
2023-12-30T01:17:03.159Z,5.78
2023-12-30T01:19:32.404Z,4.63
2023-12-30T01:22:00.194Z,5.70
2023-12-30T01:24:29.041Z,5.68
2023-12-30T01:26:56.707Z,6.45
2023-12-30T01:29:24.337Z,4.53
2023-12-30T01:31:52.052Z,6.57
2023-12-30T01:34:19.841Z,6.30
2023-12-30T01:36:48.949Z,5.45
2023-12-30T01:39:16.604Z,5.38
2023-12-30T01:41:44.277Z,4.43
2023-12-30T01:44:12.000Z,4.25
2023-12-30T01:46:39.662Z,6.03
2023-12-30T01:49:08.394Z,4.82
2023-12-30T01:51:36.651Z,4.28
2023-12-30T01:54:06.527Z,4.78
2023-12-30T01:56:34.698Z,3.60
2023-12-30T01:59:04.012Z,5.43
2023-12-30T02:01:31.799Z,4.22
2023-12-30T02:03:59.520Z,5.25
2023-12-30T02:06:27.277Z,5.75
2023-12-30T02:08:55.183Z,8.57
2023-12-30T02:11:24.380Z,5.30
2023-12-30T02:13:52.051Z,4.95
2023-12-30T02:16:19.775Z,4.88
2023-12-30T02:18:47.566Z,4.55
2023-12-30T02:21:15.346Z,4.80
2023-12-30T02:23:44.313Z,6.90
2023-12-30T02:26:11.922Z,8.90
2023-12-30T02:28:39.548Z,5.00
2023-12-30T02:31:07.152Z,10.90
2023-12-30T02:33:34.908Z,4.78
2023-12-30T02:36:02.550Z,6.53
2023-12-30T02:38:30.303Z,8.32
2023-12-30T02:40:59.245Z,5.93
2023-12-30T02:43:27.176Z,6.60
2023-12-30T02:45:56.497Z,6.28
2023-12-30T02:48:24.409Z,7.97
2023-12-30T02:50:52.148Z,6.50
2023-12-30T02:53:20.237Z,6.90
2023-12-30T02:55:47.875Z,7.47
2023-12-30T02:58:16.863Z,5.53
2023-12-30T03:00:44.590Z,7.20
2023-12-30T03:03:12.387Z,8.00
2023-12-30T03:05:40.028Z,5.82
2023-12-30T03:08:07.843Z,6.85
2023-12-30T03:10:35.598Z,8.02
2023-12-30T03:13:03.408Z,5.67
2023-12-30T03:15:32.867Z,6.70
2023-12-30T03:18:00.732Z,7.68
2023-12-30T03:20:28.372Z,7.03
2023-12-30T03:22:55.968Z,5.93
2023-12-30T03:25:23.561Z,6.87
2023-12-30T03:27:51.215Z,8.10
2023-12-30T03:30:18.822Z,4.72
2023-12-30T03:32:48.851Z,7.03
2023-12-30T03:35:20.071Z,5.13
2023-12-30T03:37:47.797Z,5.40
2023-12-30T03:40:15.571Z,7.18
2023-12-30T03:42:43.200Z,11.02
2023-12-30T03:45:11.498Z,5.78
2023-12-30T03:47:39.567Z,8.50
2023-12-30T03:50:09.476Z,10.00
2023-12-30T03:52:37.386Z,8.90
2023-12-30T03:55:06.012Z,6.03
2023-12-30T03:57:33.663Z,5.20
2023-12-30T04:00:01.442Z,4.70
2023-12-30T04:02:29.211Z,9.10
2023-12-30T04:04:57.209Z,7.82
2023-12-30T04:07:26.199Z,7.63
2023-12-30T04:09:54.000Z,9.63
2023-12-30T04:12:21.804Z,5.35
2023-12-30T04:14:49.691Z,7.30
2023-12-30T04:17:17.410Z,10.88
2023-12-30T04:19:45.191Z,7.07
2023-12-30T04:22:14.770Z,4.25
2023-12-30T04:24:44.388Z,4.55
2023-12-30T04:27:12.007Z,6.33
2023-12-30T04:29:39.614Z,5.25
2023-12-30T04:32:08.004Z,6.82
2023-12-30T04:34:36.780Z,6.05
2023-12-30T04:37:05.075Z,7.30
2023-12-30T04:39:32.690Z,5.90
2023-12-30T04:42:01.845Z,6.30
2023-12-30T04:44:29.509Z,5.95
2023-12-30T04:46:57.503Z,6.88
2023-12-30T04:49:25.389Z,7.38
2023-12-30T04:51:53.476Z,8.20
2023-12-30T04:54:21.151Z,12.85
2023-12-30T04:56:48.819Z,10.38
2023-12-30T04:59:18.561Z,13.60
2023-12-30T05:01:46.172Z,8.00
2023-12-30T05:04:14.361Z,9.67
2023-12-30T05:06:41.997Z,8.88
2023-12-30T05:09:09.998Z,7.60
2023-12-30T05:11:37.684Z,6.53
2023-12-30T05:14:05.437Z,10.73
2023-12-30T05:16:34.595Z,9.07
2023-12-30T05:19:02.235Z,9.45
2023-12-30T05:21:29.912Z,7.50
2023-12-30T05:23:57.527Z,9.02
2023-12-30T05:26:25.129Z,5.95
2023-12-30T05:28:52.677Z,7.07
2023-12-30T05:31:20.453Z,7.70
2023-12-30T05:33:49.613Z,7.40
2023-12-30T05:36:17.324Z,7.68
2023-12-30T05:38:44.896Z,6.45
2023-12-30T05:41:12.488Z,6.83
2023-12-30T05:43:42.631Z,12.10
2023-12-30T05:46:16.884Z,8.60
2023-12-30T05:48:44.896Z,7.00
2023-12-30T05:51:14.034Z,8.30
2023-12-30T05:53:42.405Z,9.70
2023-12-30T05:56:10.036Z,7.65
2023-12-30T05:58:38.933Z,10.57
2023-12-30T06:01:06.713Z,8.02
2023-12-30T06:03:36.514Z,12.82
2023-12-30T06:06:05.489Z,9.10
2023-12-30T06:08:34.671Z,5.95
2023-12-30T06:11:02.271Z,8.32
2023-12-30T06:13:30.500Z,9.45
2023-12-30T06:15:58.160Z,9.70
2023-12-30T06:18:27.882Z,7.47
2023-12-30T06:20:55.506Z,19.25
2023-12-30T06:23:23.091Z,10.55
2023-12-30T06:25:52.035Z,10.82
2023-12-30T06:28:19.704Z,7.40
2023-12-30T06:30:47.785Z,10.17
2023-12-30T06:33:15.496Z,11.55
2023-12-30T06:35:43.136Z,9.05
2023-12-30T06:38:10.827Z,8.23
2023-12-30T06:40:38.463Z,9.75
2023-12-30T06:43:07.524Z,7.53
2023-12-30T06:45:35.437Z,9.15
2023-12-30T06:48:04.351Z,8.50
2023-12-30T06:50:33.085Z,12.50
2023-12-30T06:53:01.237Z,9.98
2023-12-30T06:55:35.139Z,6.80
2023-12-30T06:58:09.358Z,9.65
2023-12-30T07:00:37.609Z,11.00
2023-12-30T07:03:06.015Z,10.57
2023-12-30T07:05:37.751Z,10.18
2023-12-30T07:08:06.121Z,8.43
2023-12-30T07:10:33.792Z,7.78
2023-12-30T07:13:01.701Z,12.10
2023-12-30T07:15:30.705Z,14.63
2023-12-30T07:17:58.762Z,10.45
2023-12-30T07:20:27.203Z,9.27
2023-12-30T07:22:54.855Z,8.85
2023-12-30T07:25:22.504Z,8.45
2023-12-30T07:27:50.318Z,6.32
2023-12-30T07:30:17.934Z,6.03
2023-12-30T07:32:46.961Z,7.63
2023-12-30T07:35:14.542Z,8.32
2023-12-30T07:37:42.517Z,4.97
2023-12-30T07:40:11.311Z,10.18
2023-12-30T07:42:38.958Z,7.15
2023-12-30T07:45:08.127Z,5.87
2023-12-30T07:47:35.876Z,6.15
2023-12-30T07:50:06.247Z,7.72
2023-12-30T07:52:34.043Z,6.32
2023-12-30T07:55:01.838Z,5.78
2023-12-30T07:57:29.576Z,6.60
2023-12-30T07:59:57.384Z,6.88
2023-12-30T08:02:24.968Z,4.13
2023-12-30T08:04:55.499Z,5.72
2023-12-30T08:07:25.562Z,8.73
2023-12-30T08:09:53.217Z,7.07
2023-12-30T08:12:20.943Z,11.45
2023-12-30T08:14:48.487Z,8.55
2023-12-30T08:17:16.123Z,7.70
2023-12-30T08:19:43.810Z,5.65
2023-12-30T08:22:12.316Z,4.00
2023-12-30T08:24:41.270Z,5.05
2023-12-30T08:27:08.886Z,3.75
2023-12-30T08:29:36.538Z,4.75
2023-12-30T08:32:06.662Z,4.00
2023-12-30T08:34:34.572Z,4.73
2023-12-30T08:37:09.173Z,5.28
2023-12-30T08:39:38.334Z,5.03
2023-12-30T08:42:08.021Z,5.57
2023-12-30T08:44:39.009Z,3.35
2023-12-30T08:47:06.942Z,6.47
2023-12-30T08:49:34.801Z,3.45
2023-12-30T08:52:02.439Z,3.25
2023-12-30T08:54:30.167Z,7.20
2023-12-30T08:56:57.829Z,5.75
2023-12-30T08:59:27.077Z,4.13
2023-12-30T09:01:55.002Z,4.32
2023-12-30T09:04:22.875Z,5.60
2023-12-30T09:06:50.574Z,3.20
2023-12-30T09:09:18.158Z,4.32
2023-12-30T09:11:46.203Z,3.57
2023-12-30T09:14:14.654Z,6.05
2023-12-30T09:16:43.676Z,5.45
2023-12-30T09:19:11.607Z,5.03
2023-12-30T09:21:39.278Z,3.85
2023-12-30T09:24:07.903Z,5.27
2023-12-30T09:26:35.514Z,6.18
2023-12-30T09:29:03.111Z,6.82
2023-12-30T09:31:30.757Z,6.38
2023-12-30T09:33:59.763Z,5.97
2023-12-30T09:36:29.278Z,9.90
2023-12-30T09:38:56.866Z,5.95
2023-12-30T09:41:27.425Z,5.60
2023-12-30T09:43:55.892Z,7.05
2023-12-30T09:46:23.603Z,4.18
2023-12-30T09:48:53.475Z,6.83
2023-12-30T09:51:22.765Z,4.00
2023-12-30T09:53:50.345Z,5.38
2023-12-30T09:56:20.312Z,5.97
2023-12-30T09:58:48.664Z,5.53
2023-12-30T10:01:17.386Z,5.60
2023-12-30T10:03:45.184Z,5.60
2023-12-30T10:06:15.437Z,6.55
2023-12-30T10:08:44.835Z,7.22
2023-12-30T10:11:13.155Z,6.60
2023-12-30T10:13:41.705Z,7.67
2023-12-30T10:16:09.848Z,5.35
2023-12-30T10:18:38.285Z,4.95
2023-12-30T10:21:06.741Z,7.65
2023-12-30T10:23:35.729Z,7.03
2023-12-30T10:26:05.586Z,9.33
2023-12-30T10:28:33.302Z,8.82
2023-12-30T10:31:04.491Z,6.53
2023-12-30T10:33:34.029Z,6.38
2023-12-30T10:36:01.990Z,7.65
2023-12-30T10:38:30.012Z,6.53
2023-12-30T10:40:57.787Z,5.60
2023-12-30T10:43:26.820Z,5.03
2023-12-30T10:45:58.864Z,9.77
2023-12-30T10:48:31.873Z,7.88
2023-12-30T10:51:00.524Z,6.30
2023-12-30T10:53:30.485Z,5.75
2023-12-30T10:56:01.889Z,5.65
2023-12-30T10:58:35.000Z,7.13
2023-12-30T11:01:05.831Z,5.85
2023-12-30T11:03:35.617Z,5.10
2023-12-30T11:06:09.561Z,5.72
2023-12-30T11:08:37.565Z,7.03
2023-12-30T11:11:07.054Z,4.50
2023-12-30T11:13:42.713Z,3.85
2023-12-30T11:16:15.464Z,5.80
2023-12-30T11:18:47.767Z,4.90
2023-12-30T11:21:34.549Z,3.45
2023-12-30T11:24:02.965Z,5.53
2023-12-30T11:26:30.806Z,5.03
2023-12-30T11:29:01.682Z,3.90
2023-12-30T11:31:33.257Z,4.55
2023-12-30T11:34:01.972Z,3.97
2023-12-30T11:36:30.846Z,7.07
2023-12-30T11:39:00.097Z,4.97
2023-12-30T11:41:28.760Z,4.60
2023-12-30T11:43:57.271Z,5.50
2023-12-30T11:46:27.486Z,5.65
2023-12-30T11:48:55.384Z,8.15
2023-12-30T11:51:23.305Z,5.90
2023-12-30T11:53:51.192Z,7.17
2023-12-30T11:56:20.578Z,10.20
2023-12-30T11:58:48.609Z,7.38
2023-12-30T12:01:16.322Z,7.63
2023-12-30T12:03:45.360Z,5.40
2023-12-30T12:06:13.520Z,6.53
2023-12-30T12:08:41.438Z,7.82
2023-12-30T12:11:10.256Z,7.13
2023-12-30T12:13:38.204Z,11.52
2023-12-30T12:16:07.407Z,7.80
2023-12-30T12:18:35.924Z,10.20
2023-12-30T12:21:13.737Z,7.00
2023-12-30T12:23:42.410Z,11.38
2023-12-30T12:26:10.642Z,10.32
2023-12-30T12:28:38.364Z,8.52
2023-12-30T12:31:08.575Z,9.50
2023-12-30T12:33:37.248Z,8.40
2023-12-30T12:36:06.965Z,10.45
2023-12-30T12:38:34.745Z,10.13
2023-12-30T12:41:02.359Z,8.52
2023-12-30T12:43:31.157Z,9.97
2023-12-30T12:45:59.080Z,8.93
2023-12-30T12:48:26.963Z,9.38
2023-12-30T12:50:56.681Z,7.20
2023-12-30T12:53:25.754Z,9.30
2023-12-30T12:55:53.737Z,7.40
2023-12-30T12:58:21.412Z,9.07
2023-12-30T13:00:49.604Z,10.15
2023-12-30T13:03:17.441Z,15.38
2023-12-30T13:05:45.244Z,11.40
2023-12-30T13:08:13.024Z,10.40
2023-12-30T13:10:48.291Z,12.10
2023-12-30T13:13:16.103Z,7.03
2023-12-30T13:15:45.068Z,8.50
2023-12-30T13:18:18.109Z,9.15
2023-12-30T13:20:47.279Z,9.57
2023-12-30T13:23:15.824Z,10.13
2023-12-30T13:25:45.262Z,9.43
2023-12-30T13:28:13.231Z,8.10
2023-12-30T13:30:41.635Z,9.52
2023-12-30T13:33:11.774Z,9.40
2023-12-30T13:35:40.523Z,9.27
2023-12-30T13:38:13.711Z,9.27
2023-12-30T13:40:42.935Z,10.57
2023-12-30T13:43:12.637Z,10.35
2023-12-30T13:45:45.025Z,10.67
2023-12-30T13:48:46.733Z,8.93
2023-12-30T13:51:17.194Z,12.18
2023-12-30T13:53:45.258Z,13.23
2023-12-30T13:56:20.000Z,11.05
2023-12-30T13:58:50.869Z,8.67
2023-12-30T14:03:52.109Z,11.02
2023-12-30T14:06:22.328Z,6.25
2023-12-30T14:08:50.249Z,14.25
2023-12-30T14:11:32.399Z,8.73
2023-12-30T14:14:04.520Z,8.27
2023-12-30T14:16:33.001Z,10.00
2023-12-30T14:19:00.834Z,9.40
2023-12-30T14:21:28.685Z,6.38
2023-12-30T14:23:56.278Z,10.30
2023-12-30T14:26:24.043Z,12.85
2023-12-30T14:28:51.650Z,14.45
2023-12-30T14:31:20.677Z,9.32
2023-12-30T14:33:49.184Z,14.15
2023-12-30T14:36:17.234Z,12.90
2023-12-30T14:38:46.796Z,7.63
2023-12-30T14:41:14.450Z,11.02
2023-12-30T14:43:42.806Z,10.75
2023-12-30T14:46:12.792Z,8.75
2023-12-30T14:48:42.031Z,9.07
2023-12-30T14:51:09.734Z,10.60
2023-12-30T14:53:37.297Z,10.50
2023-12-30T14:56:05.529Z,8.35
2023-12-30T14:58:33.195Z,10.38
2023-12-30T15:01:01.581Z,9.90
2023-12-30T15:03:29.681Z,10.00
2023-12-30T15:05:58.662Z,10.25
2023-12-30T15:08:26.350Z,9.45
2023-12-30T15:10:54.494Z,12.93
2023-12-30T15:13:22.148Z,9.47
2023-12-30T15:15:49.792Z,8.80
2023-12-30T15:18:17.437Z,11.85
2023-12-30T15:20:45.137Z,10.52
2023-12-30T15:23:15.826Z,10.48
2023-12-30T15:25:43.564Z,9.57
2023-12-30T15:28:11.252Z,7.35
2023-12-30T15:30:39.024Z,7.78
2023-12-30T15:33:07.351Z,13.10
2023-12-30T15:35:35.670Z,10.20
2023-12-30T15:38:03.380Z,9.83
2023-12-30T15:40:34.041Z,11.68
2023-12-30T15:43:01.978Z,8.30
2023-12-30T15:45:30.069Z,11.00
2023-12-30T15:47:57.837Z,12.18
2023-12-30T15:50:25.600Z,7.83
2023-12-30T15:52:53.890Z,9.40
2023-12-30T15:55:21.418Z,9.85
2023-12-30T15:57:51.357Z,9.02
2023-12-30T16:00:19.520Z,14.35
2023-12-30T16:02:47.521Z,9.67
2023-12-30T16:05:15.253Z,10.65
2023-12-30T16:07:43.033Z,7.95
2023-12-30T16:10:11.180Z,12.45
2023-12-30T16:12:39.258Z,9.85
2023-12-30T16:15:09.513Z,15.30
2023-12-30T16:17:37.278Z,9.93
2023-12-30T16:20:05.885Z,13.00
2023-12-30T16:22:33.586Z,10.35
2023-12-30T16:25:01.317Z,11.15
2023-12-30T16:27:28.994Z,11.87
2023-12-30T16:29:56.595Z,14.38
2023-12-30T16:32:25.547Z,10.07
2023-12-30T16:34:54.180Z,10.65
2023-12-30T16:37:23.543Z,10.02
2023-12-30T16:39:52.717Z,15.80
2023-12-30T16:42:20.666Z,15.30
2023-12-30T16:44:48.245Z,14.43
2023-12-30T16:47:15.935Z,10.15
2023-12-30T16:49:44.960Z,15.63
2023-12-30T16:52:12.608Z,9.43
2023-12-30T16:54:40.159Z,14.23
2023-12-30T16:57:08.178Z,12.93
2023-12-30T16:59:35.843Z,11.43
2023-12-30T17:02:03.668Z,14.77
2023-12-30T17:04:31.291Z,13.73
2023-12-30T17:07:00.334Z,12.02
2023-12-30T17:09:27.941Z,16.60
2023-12-30T17:11:55.547Z,14.40
2023-12-30T17:14:23.140Z,17.80
2023-12-30T17:16:50.764Z,12.50
2023-12-30T17:19:18.543Z,13.00
2023-12-30T17:21:46.279Z,11.25
2023-12-30T17:24:15.772Z,18.42
2023-12-30T17:26:43.377Z,8.32
2023-12-30T17:29:10.979Z,9.70
2023-12-30T17:31:38.586Z,16.50
2023-12-30T17:34:06.281Z,12.43
2023-12-30T17:36:33.919Z,14.73
2023-12-30T17:39:01.535Z,14.95
2023-12-30T17:41:30.574Z,15.40
2023-12-30T17:43:58.811Z,12.40
2023-12-30T17:46:27.292Z,14.75
2023-12-30T17:48:55.099Z,17.13
2023-12-30T17:51:23.381Z,14.40
2023-12-30T17:53:51.819Z,58.97
2023-12-30T17:56:20.314Z,14.98
2023-12-30T17:58:50.692Z,13.70
2023-12-30T18:01:20.405Z,12.40
2023-12-30T18:03:48.068Z,12.35
2023-12-30T18:06:16.214Z,12.57
2023-12-30T18:08:44.034Z,17.77
2023-12-30T18:11:11.636Z,12.90
2023-12-30T18:13:39.477Z,13.70
2023-12-30T18:16:09.642Z,14.85
2023-12-30T18:18:37.528Z,20.10
2023-12-30T18:21:05.412Z,14.10
2023-12-30T18:23:33.006Z,13.77
2023-12-30T18:26:00.679Z,17.05
2023-12-30T18:28:28.360Z,17.85
2023-12-30T18:30:56.309Z,19.20
2023-12-30T18:33:27.038Z,16.00
2023-12-30T18:35:55.460Z,19.13
2023-12-30T18:38:23.125Z,17.25
2023-12-30T18:40:50.997Z,28.13
2023-12-30T18:43:18.674Z,22.27
2023-12-30T18:45:46.339Z,23.10
2023-12-30T18:48:15.651Z,19.48
2023-12-30T18:50:45.294Z,26.55
2023-12-30T18:53:13.107Z,19.90
2023-12-30T18:55:41.435Z,22.53
2023-12-30T18:58:09.216Z,16.70
2023-12-30T19:00:36.883Z,20.17
2023-12-30T19:03:05.211Z,24.35
2023-12-30T19:05:33.242Z,18.52
2023-12-30T19:08:02.655Z,27.37
2023-12-30T19:10:30.297Z,19.75
2023-12-30T19:12:58.076Z,23.50
2023-12-30T19:15:25.934Z,22.45
2023-12-30T19:17:53.735Z,21.55
2023-12-30T19:20:22.258Z,14.80
2023-12-30T19:22:50.006Z,23.05
2023-12-30T19:25:19.112Z,23.38
2023-12-30T19:27:47.813Z,15.77
2023-12-30T19:30:15.902Z,20.67
2023-12-30T19:32:43.508Z,16.07
2023-12-30T19:35:11.828Z,18.35
2023-12-30T19:37:43.184Z,20.63
2023-12-30T19:40:12.504Z,24.13
2023-12-30T19:42:41.531Z,22.35
2023-12-30T19:45:12.960Z,19.43
2023-12-30T19:47:41.199Z,20.10
2023-12-30T19:50:08.923Z,19.35
2023-12-30T19:52:36.680Z,28.70
2023-12-30T19:55:04.849Z,30.45
2023-12-30T19:57:33.538Z,20.77
2023-12-30T20:00:04.150Z,21.50
2023-12-30T20:02:32.506Z,21.63
2023-12-30T20:05:02.601Z,21.63
2023-12-30T20:07:31.660Z,17.48
2023-12-30T20:09:59.295Z,20.40
2023-12-30T20:12:27.012Z,25.50
2023-12-30T20:14:54.739Z,14.52
2023-12-30T20:17:23.749Z,17.60
2023-12-30T20:19:51.425Z,23.73
2023-12-30T20:22:19.307Z,18.93
2023-12-30T20:24:46.882Z,19.75
2023-12-30T20:27:14.497Z,20.58
2023-12-30T20:29:43.112Z,18.77
2023-12-30T20:32:10.829Z,20.55
2023-12-30T20:34:39.746Z,17.80
2023-12-30T20:37:07.446Z,24.48
2023-12-30T20:39:34.988Z,17.48
2023-12-30T20:42:02.575Z,18.88
2023-12-30T20:44:30.191Z,22.70
2023-12-30T20:46:57.839Z,23.20
2023-12-30T20:49:26.206Z,17.45
2023-12-30T20:51:55.259Z,16.15
2023-12-30T20:54:22.927Z,18.65
2023-12-30T20:56:50.500Z,18.70
2023-12-30T20:59:21.255Z,21.13
2023-12-30T21:01:49.266Z,20.27
2023-12-30T21:04:17.413Z,20.33
2023-12-30T21:06:45.152Z,19.25
2023-12-30T21:09:15.334Z,21.30
2023-12-30T21:11:43.596Z,19.50
2023-12-30T21:14:11.221Z,17.63
2023-12-30T21:16:39.074Z,21.58
2023-12-30T21:19:06.825Z,23.98
2023-12-30T21:21:34.513Z,19.63
2023-12-30T21:24:02.472Z,20.20
2023-12-30T21:26:32.877Z,16.92
2023-12-30T21:29:00.590Z,21.45
2023-12-30T21:31:28.249Z,22.92
2023-12-30T21:33:55.943Z,18.40
2023-12-30T21:36:23.842Z,18.37
2023-12-30T21:38:51.483Z,21.90
2023-12-30T21:41:23.693Z,19.23
2023-12-30T21:43:52.881Z,18.02
2023-12-30T21:46:20.561Z,19.10
2023-12-30T21:48:48.319Z,19.13
2023-12-30T21:51:18.437Z,15.52
2023-12-30T21:53:46.463Z,21.48
2023-12-30T21:56:14.759Z,19.65
2023-12-30T21:58:42.474Z,21.98
2023-12-30T22:01:11.452Z,15.70
2023-12-30T22:03:39.184Z,21.25
2023-12-30T22:06:07.632Z,17.10
2023-12-30T22:08:35.377Z,26.00
2023-12-30T22:11:03.042Z,20.52
2023-12-30T22:13:30.732Z,16.60
2023-12-30T22:15:58.641Z,22.08
2023-12-30T22:18:27.736Z,18.52
2023-12-30T22:20:56.453Z,21.63
2023-12-30T22:23:24.134Z,22.80
2023-12-30T22:25:51.805Z,19.90
2023-12-30T22:28:19.526Z,17.58
2023-12-30T22:30:47.180Z,18.85
2023-12-30T22:33:15.286Z,31.35
2023-12-30T22:35:44.239Z,16.35
2023-12-30T22:38:11.909Z,17.03
2023-12-30T22:40:39.523Z,18.95
2023-12-30T22:43:07.387Z,16.48
2023-12-30T22:45:37.599Z,21.42
2023-12-30T22:48:06.034Z,15.38
2023-12-30T22:50:33.632Z,24.47
2023-12-30T22:53:02.957Z,25.05
2023-12-30T22:55:30.999Z,17.05
2023-12-30T22:57:58.706Z,17.25
2023-12-30T23:00:28.489Z,22.67
2023-12-30T23:02:56.194Z,19.43
2023-12-30T23:05:24.330Z,18.52
2023-12-30T23:07:52.468Z,15.85
2023-12-30T23:10:21.476Z,20.55
2023-12-30T23:12:49.153Z,19.42
2023-12-30T23:15:16.845Z,13.10
2023-12-30T23:17:44.649Z,15.68
2023-12-30T23:20:13.413Z,15.88
2023-12-30T23:22:41.182Z,16.13
2023-12-30T23:25:09.407Z,23.25
2023-12-30T23:27:38.932Z,16.83
2023-12-30T23:30:07.777Z,24.05
2023-12-30T23:32:37.534Z,23.83
2023-12-30T23:35:05.541Z,15.13
2023-12-30T23:37:33.793Z,18.95
2023-12-30T23:40:02.126Z,16.13
2023-12-30T23:42:29.740Z,13.82
2023-12-30T23:44:58.739Z,11.70
2023-12-30T23:47:26.489Z,16.98
2023-12-30T23:49:54.091Z,13.23
2023-12-30T23:52:21.819Z,12.77
2023-12-30T23:54:49.414Z,15.43
2023-12-30T23:57:17.744Z,14.77
2023-12-30T23:59:45.420Z,16.13
